Time;durP1;ratioP1;P1;durP2;ratioP2;P2;SDS_P1;SDS_P2;PMS_P1;PMS_P2;Temp;Humidity;BMP_temperature;BMP_pressure;BME280_temperature;BME280_humidity;BME280_pressure;Samples;Min_cycle;Max_cycle;Signal;HPM_P1;HPM_P2
2023/08/07 00:02:06;;;;;;;9.50;2.65;;;13.90;99.90;;;;;;4982909;28;20053;-58
2023/08/07 00:04:32;;;;;;;11.93;2.83;;;13.80;99.90;;;;;;4978614;28;20034;-57
2023/08/07 00:06:57;;;;;;;10.57;2.60;;;13.90;99.90;;;;;;4984153;28;20073;-58
2023/08/07 00:09:23;;;;;;;9.35;2.50;;;13.90;99.90;;;;;;4983324;28;20045;-56
2023/08/07 00:11:49;;;;;;;13.18;2.60;;;13.90;99.90;;;;;;4984929;28;20054;-56
2023/08/07 00:14:14;;;;;;;12.45;2.65;;;13.70;99.90;;;;;;4983863;28;20039;-58
2023/08/07 00:16:41;;;;;;;11.55;2.95;;;13.80;99.90;;;;;;4986253;28;20041;-57
2023/08/07 00:19:07;;;;;;;6.63;2.40;;;13.80;99.90;;;;;;4976132;28;20035;-56
2023/08/07 00:21:35;;;;;;;6.93;2.55;;;13.70;99.90;;;;;;4976838;28;20175;-57
2023/08/07 00:24:01;;;;;;;13.63;2.67;;;13.80;99.90;;;;;;4987893;28;20045;-58
2023/08/07 00:26:26;;;;;;;11.02;2.58;;;15.40;99.90;;;;;;4981072;28;20248;-56
2023/08/07 00:28:52;;;;;;;10.57;2.75;;;13.90;99.90;;;;;;4985382;28;20042;-57
2023/08/07 00:31:17;;;;;;;9.63;2.55;;;13.90;99.90;;;;;;4984365;28;20041;-58
2023/08/07 00:33:43;;;;;;;8.48;2.55;;;13.80;99.90;;;;;;4985424;28;20034;-58
2023/08/07 00:36:09;;;;;;;10.10;2.30;;;13.70;99.90;;;;;;4985318;28;20050;-58
2023/08/07 00:38:34;;;;;;;14.77;3.25;;;13.80;99.90;;;;;;4977302;28;20117;-55
2023/08/07 00:41:00;;;;;;;9.05;2.67;;;13.80;99.90;;;;;;4978279;28;20045;-57
2023/08/07 00:43:25;;;;;;;12.60;2.70;;;13.80;99.90;;;;;;4982868;28;20132;-57
2023/08/07 00:45:51;;;;;;;13.38;2.90;;;13.90;99.90;;;;;;4985532;28;20522;-57
2023/08/07 00:48:17;;;;;;;11.15;3.03;;;13.80;99.90;;;;;;4985235;28;20038;-56
2023/08/07 00:50:46;;;;;;;11.32;2.80;;;13.80;99.90;;;;;;4983068;28;20029;-56
2023/08/07 00:53:11;;;;;;;11.25;2.47;;;13.90;99.90;;;;;;4982270;28;20058;-54
2023/08/07 00:55:37;;;;;;;13.20;2.80;;;13.90;99.90;;;;;;4985262;28;20054;-55
2023/08/07 00:58:03;;;;;;;11.00;2.90;;;13.90;99.90;;;;;;4982133;28;20038;-56
2023/08/07 01:00:30;;;;;;;13.90;3.05;;;13.90;99.90;;;;;;4980282;28;20054;-56
2023/08/07 01:02:56;;;;;;;13.13;2.80;;;14.00;99.90;;;;;;4980705;28;20078;-55
2023/08/07 01:05:26;;;;;;;13.23;2.85;;;13.90;99.90;;;;;;4980751;28;20062;-55
2023/08/07 01:07:54;;;;;;;10.85;2.35;;;13.90;99.90;;;;;;4975608;28;20257;-55
2023/08/07 01:10:32;;;;;;;8.52;2.92;;;13.90;99.90;;;;;;4982210;28;20022;-59
2023/08/07 01:13:24;;;;;;;11.77;2.58;;;13.90;99.90;;;;;;4982945;28;20042;-56
2023/08/07 01:15:54;;;;;;;11.43;2.65;;;13.90;99.90;;;;;;4965254;28;20034;-56
2023/08/07 01:18:22;;;;;;;13.45;2.90;;;13.90;99.90;;;;;;4978461;28;20054;-56
2023/08/07 01:20:47;;;;;;;13.32;3.20;;;14.00;99.90;;;;;;4977969;28;20034;-56
2023/08/07 01:23:13;;;;;;;8.73;2.50;;;13.40;99.90;;;;;;4985438;28;20401;-56
2023/08/07 01:25:39;;;;;;;16.30;2.95;;;14.10;99.90;;;;;;4985726;28;20314;-56
2023/08/07 01:28:16;;;;;;;12.45;3.42;;;13.90;99.90;;;;;;4983801;28;20057;-56
2023/08/07 01:30:48;;;;;;;17.92;3.35;;;14.00;99.90;;;;;;4984809;28;20038;-56
2023/08/07 01:33:25;;;;;;;13.98;3.17;;;14.00;99.90;;;;;;4976527;28;20035;-56
2023/08/07 01:35:55;;;;;;;10.07;2.75;;;13.90;99.90;;;;;;4983125;28;20065;-56
2023/08/07 01:38:25;;;;;;;16.40;3.45;;;13.90;99.90;;;;;;4981752;28;20042;-54
2023/08/07 01:40:52;;;;;;;18.40;4.07;;;13.90;99.90;;;;;;4983040;28;20572;-56
2023/08/07 01:43:19;;;;;;;15.80;3.30;;;13.70;99.90;;;;;;4982755;28;20070;-57
2023/08/07 01:45:45;;;;;;;14.40;3.40;;;13.60;99.90;;;;;;4981775;28;20034;-56
2023/08/07 01:48:11;;;;;;;14.18;3.28;;;13.90;99.90;;;;;;4979558;28;20035;-55
2023/08/07 01:50:38;;;;;;;14.50;3.47;;;13.80;99.90;;;;;;4982952;28;20030;-56
2023/08/07 01:53:04;;;;;;;17.35;3.28;;;13.70;99.90;;;;;;4980480;28;20525;-55
2023/08/07 01:55:30;;;;;;;10.35;2.83;;;13.60;99.90;;;;;;4984328;28;20034;-56
2023/08/07 01:57:55;;;;;;;13.82;3.55;;;13.70;99.90;;;;;;4983470;28;20031;-55
2023/08/07 02:00:21;;;;;;;17.20;3.53;;;13.60;99.90;;;;;;4981883;28;20050;-56
2023/08/07 02:02:47;;;;;;;14.23;3.33;;;13.70;99.90;;;;;;4981879;28;20031;-55
2023/08/07 02:05:14;;;;;;;11.20;2.97;;;13.50;99.90;;;;;;4978488;28;20034;-57
2023/08/07 02:07:40;;;;;;;14.75;3.33;;;13.40;99.90;;;;;;4978034;28;20038;-55
2023/08/07 02:10:06;;;;;;;14.75;3.90;;;13.80;99.90;;;;;;4984492;28;20042;-56
2023/08/07 02:12:32;;;;;;;12.07;3.78;;;13.60;99.90;;;;;;4977138;28;20049;-55
2023/08/07 02:14:59;;;;;;;13.93;3.53;;;13.70;99.90;;;;;;4965966;28;20042;-57
2023/08/07 02:17:30;;;;;;;15.52;3.65;;;13.70;99.90;;;;;;4983307;28;20391;-56
2023/08/07 02:19:56;;;;;;;15.20;3.42;;;13.60;99.90;;;;;;4976830;28;20038;-57
2023/08/07 02:22:21;;;;;;;12.65;3.70;;;13.70;99.90;;;;;;4981899;28;20042;-57
2023/08/07 02:24:47;;;;;;;13.85;3.40;;;13.60;99.90;;;;;;4982286;28;20045;-56
2023/08/07 02:27:13;;;;;;;12.45;3.25;;;13.60;99.90;;;;;;4982306;28;20034;-57
2023/08/07 02:29:38;;;;;;;18.08;4.13;;;13.50;99.90;;;;;;4984800;28;20097;-57
2023/08/07 02:32:04;;;;;;;16.13;3.88;;;13.50;99.90;;;;;;4983053;28;20115;-58
2023/08/07 02:34:30;;;;;;;18.52;3.90;;;13.50;99.90;;;;;;4984690;28;20050;-55
2023/08/07 02:36:56;;;;;;;13.15;3.58;;;13.40;99.90;;;;;;4986456;28;20038;-56
2023/08/07 02:39:22;;;;;;;14.35;3.97;;;13.50;99.90;;;;;;4984810;28;20417;-62
2023/08/07 02:41:48;;;;;;;16.83;3.65;;;13.60;99.90;;;;;;4985506;28;20039;-58
2023/08/07 02:44:14;;;;;;;12.10;4.40;;;13.50;99.90;;;;;;4982436;28;20050;-56
2023/08/07 02:46:39;;;;;;;16.15;3.97;;;13.60;99.90;;;;;;4984313;28;20611;-57
2023/08/07 02:49:05;;;;;;;19.77;3.90;;;13.50;99.90;;;;;;4980244;28;22093;-57
2023/08/07 02:51:32;;;;;;;15.27;3.38;;;13.60;99.90;;;;;;4986237;28;20057;-57
2023/08/07 02:53:57;;;;;;;14.60;3.28;;;13.50;99.90;;;;;;4984841;28;20121;-56
2023/08/07 02:56:23;;;;;;;14.82;3.92;;;13.50;99.90;;;;;;4986377;28;20117;-58
2023/08/07 02:58:48;;;;;;;19.80;4.47;;;13.70;99.90;;;;;;4984478;28;20051;-56
2023/08/07 03:01:14;;;;;;;17.77;3.38;;;13.40;99.90;;;;;;4965871;28;20050;-58
2023/08/07 03:03:39;;;;;;;16.92;3.53;;;13.40;99.90;;;;;;4986679;28;20061;-57
2023/08/07 03:06:05;;;;;;;20.50;3.70;;;13.70;99.90;;;;;;4986428;28;20081;-57
2023/08/07 03:08:31;;;;;;;17.73;3.75;;;13.70;99.90;;;;;;4987096;28;20072;-57
2023/08/07 03:10:58;;;;;;;23.23;4.75;;;13.60;99.90;;;;;;4981846;28;20049;-57
2023/08/07 03:13:27;;;;;;;17.63;3.92;;;13.60;99.90;;;;;;4985983;28;20049;-58
2023/08/07 03:16:00;;;;;;;18.80;3.97;;;13.80;99.90;;;;;;4986023;28;20672;-57
2023/08/07 03:18:27;;;;;;;17.60;4.03;;;13.80;99.90;;;;;;4991298;28;20042;-57
2023/08/07 03:20:52;;;;;;;17.52;3.83;;;13.60;99.90;;;;;;4983141;28;20035;-57
2023/08/07 03:23:18;;;;;;;20.02;4.28;;;13.80;99.90;;;;;;4984887;28;20125;-57
2023/08/07 03:25:43;;;;;;;19.13;4.60;;;13.80;99.90;;;;;;4987164;28;20075;-57
2023/08/07 03:28:09;;;;;;;15.70;3.95;;;13.70;99.90;;;;;;4985489;28;20081;-57
2023/08/07 03:30:35;;;;;;;21.15;4.20;;;13.50;99.90;;;;;;4986477;28;20133;-58
2023/08/07 03:33:00;;;;;;;21.13;4.20;;;13.70;99.90;;;;;;4986901;28;20034;-58
2023/08/07 03:35:26;;;;;;;16.27;3.75;;;13.60;99.90;;;;;;4986500;28;20513;-56
2023/08/07 03:37:51;;;;;;;15.93;4.07;;;13.60;99.90;;;;;;4982025;28;20042;-58
2023/08/07 03:40:17;;;;;;;18.00;4.10;;;13.70;99.90;;;;;;4983910;28;20069;-55
2023/08/07 03:42:43;;;;;;;14.95;4.00;;;13.70;99.90;;;;;;4983515;28;20034;-58
2023/08/07 03:45:09;;;;;;;15.43;4.15;;;13.70;99.90;;;;;;4986103;28;20096;-56
2023/08/07 03:47:34;;;;;;;17.15;4.10;;;13.80;99.90;;;;;;4978311;28;20437;-58
2023/08/07 03:50:00;;;;;;;15.35;3.72;;;13.70;99.90;;;;;;4980480;28;20042;-56
2023/08/07 03:52:25;;;;;;;17.13;3.92;;;13.60;99.90;;;;;;4979134;28;20042;-55
2023/08/07 03:54:51;;;;;;;18.75;4.40;;;13.70;99.90;;;;;;4980678;28;20046;-56
2023/08/07 03:57:16;;;;;;;13.65;3.80;;;13.60;99.90;;;;;;4985637;28;20046;-60
2023/08/07 03:59:42;;;;;;;21.17;4.38;;;13.80;99.90;;;;;;4980217;28;20057;-56
2023/08/07 04:02:07;;;;;;;19.90;3.53;;;13.70;99.90;;;;;;4983458;28;20034;-55
2023/08/07 04:04:33;;;;;;;18.40;4.13;;;13.70;99.90;;;;;;4983145;28;20249;-55
2023/08/07 04:06:58;;;;;;;13.98;4.28;;;13.80;99.90;;;;;;4984762;28;20041;-54
2023/08/07 04:09:24;;;;;;;17.48;3.70;;;13.70;99.90;;;;;;4984608;28;20486;-54
2023/08/07 04:11:49;;;;;;;13.10;3.88;;;13.70;99.90;;;;;;4983059;28;20150;-54
2023/08/07 04:14:15;;;;;;;19.92;4.05;;;13.70;99.90;;;;;;4984280;28;20039;-54
2023/08/07 04:16:41;;;;;;;23.27;4.70;;;13.70;99.90;;;;;;4980820;28;20734;-56
2023/08/07 04:19:07;;;;;;;15.13;4.07;;;13.80;99.90;;;;;;4982637;28;20130;-56
2023/08/07 04:21:33;;;;;;;20.75;4.10;;;13.80;99.90;;;;;;4984582;28;20038;-57
2023/08/07 04:24:00;;;;;;;14.43;4.03;;;13.80;99.90;;;;;;4991056;28;20469;-57
2023/08/07 04:26:26;;;;;;;14.90;4.55;;;13.90;99.90;;;;;;4983124;28;20037;-56
2023/08/07 04:28:52;;;;;;;15.40;4.03;;;13.90;99.90;;;;;;4985766;28;20054;-60
2023/08/07 04:31:17;;;;;;;14.77;4.03;;;13.70;99.90;;;;;;4985168;28;20045;-58
2023/08/07 04:33:43;;;;;;;16.15;3.97;;;13.50;99.90;;;;;;4984704;28;20030;-57
2023/08/07 04:36:08;;;;;;;15.85;4.05;;;13.80;99.90;;;;;;4985361;28;20403;-56
2023/08/07 04:38:34;;;;;;;17.95;4.30;;;13.80;99.90;;;;;;4975553;28;20133;-57
2023/08/07 04:41:00;;;;;;;14.55;3.78;;;13.90;99.90;;;;;;4975097;28;20434;-56
2023/08/07 04:43:25;;;;;;;16.08;4.40;;;13.60;99.90;;;;;;4982972;28;20038;-55
2023/08/07 04:45:51;;;;;;;14.95;4.20;;;13.70;99.90;;;;;;4984752;28;20049;-57
2023/08/07 04:48:17;;;;;;;17.65;4.38;;;13.80;99.90;;;;;;4982102;28;20042;-57
2023/08/07 04:50:43;;;;;;;16.60;3.88;;;13.70;99.90;;;;;;4984565;28;20031;-57
2023/08/07 04:53:09;;;;;;;16.52;4.43;;;13.70;99.90;;;;;;4983769;28;20476;-57
2023/08/07 04:55:35;;;;;;;13.63;3.65;;;13.80;99.90;;;;;;4975272;28;20061;-56
2023/08/07 04:58:00;;;;;;;11.30;3.75;;;13.80;99.90;;;;;;4984658;28;20043;-55
2023/08/07 05:00:27;;;;;;;14.27;3.63;;;13.80;99.90;;;;;;4980170;28;20054;-56
2023/08/07 05:02:53;;;;;;;16.83;3.72;;;13.80;99.90;;;;;;4984503;28;20465;-54
2023/08/07 05:05:20;;;;;;;16.98;4.60;;;13.70;99.90;;;;;;4966002;28;20172;-56
2023/08/07 05:07:47;;;;;;;16.35;4.05;;;13.70;99.90;;;;;;4981402;28;20062;-56
2023/08/07 05:10:12;;;;;;;10.95;3.75;;;13.70;99.90;;;;;;4981170;28;20042;-55
2023/08/07 05:12:38;;;;;;;16.58;4.45;;;13.80;99.90;;;;;;4982625;28;20042;-55
2023/08/07 05:15:04;;;;;;;16.00;4.07;;;13.60;99.90;;;;;;4983042;28;20121;-55
2023/08/07 05:17:30;;;;;;;23.30;4.90;;;13.80;99.90;;;;;;4981816;28;20067;-56
2023/08/07 05:19:56;;;;;;;13.30;4.32;;;13.70;99.90;;;;;;4980733;28;20026;-56
2023/08/07 05:22:21;;;;;;;15.52;4.90;;;13.70;99.90;;;;;;4963893;28;20048;-56
2023/08/07 05:24:48;;;;;;;16.40;4.72;;;13.60;99.90;;;;;;4982621;28;20057;-56
2023/08/07 05:27:14;;;;;;;18.80;5.03;;;13.60;99.90;;;;;;4975783;28;20054;-54
2023/08/07 05:29:45;;;;;;;18.67;5.25;;;13.70;99.90;;;;;;4974201;28;20038;-55
2023/08/07 05:32:12;;;;;;;19.75;5.25;;;13.60;99.90;;;;;;4974497;28;20042;-56
2023/08/07 05:34:38;;;;;;;19.98;5.75;;;13.70;99.90;;;;;;4975621;28;20038;-56
2023/08/07 05:37:04;;;;;;;18.17;5.32;;;13.70;99.90;;;;;;4982133;28;20553;-54
2023/08/07 05:39:29;;;;;;;18.52;5.78;;;13.70;99.90;;;;;;4982987;28;20038;-55
2023/08/07 05:41:57;;;;;;;20.95;5.30;;;13.70;99.90;;;;;;4986078;28;20026;-56
2023/08/07 05:44:23;;;;;;;18.17;5.15;;;13.60;99.90;;;;;;4993237;28;20033;-56
2023/08/07 05:46:49;;;;;;;17.95;5.45;;;13.70;99.90;;;;;;4982676;28;20505;-56
2023/08/07 05:49:15;;;;;;;20.85;5.43;;;13.70;99.90;;;;;;4981165;28;20038;-55
2023/08/07 05:51:41;;;;;;;17.33;5.78;;;13.70;99.90;;;;;;4974895;28;20039;-56
2023/08/07 05:54:07;;;;;;;19.83;5.47;;;13.60;99.90;;;;;;4981026;28;20053;-55
2023/08/07 05:56:32;;;;;;;22.70;5.50;;;13.80;99.90;;;;;;4979386;28;20042;-61
2023/08/07 05:58:58;;;;;;;18.05;4.93;;;13.80;99.90;;;;;;4981799;28;20042;-55
2023/08/07 06:01:29;;;;;;;21.65;6.13;;;13.70;99.90;;;;;;4980706;28;20046;-55
2023/08/07 06:03:55;;;;;;;15.52;6.65;;;13.70;99.90;;;;;;4985715;28;20484;-54
2023/08/07 06:06:20;;;;;;;22.73;6.15;;;13.80;99.90;;;;;;4986423;28;20101;-55
2023/08/07 06:08:46;;;;;;;19.48;5.93;;;13.80;99.90;;;;;;4983295;28;20390;-56
2023/08/07 06:11:12;;;;;;;18.58;5.57;;;13.80;99.90;;;;;;4970281;28;20042;-56
2023/08/07 06:13:37;;;;;;;18.05;6.18;;;13.80;99.90;;;;;;4985989;28;20042;-56
2023/08/07 06:16:03;;;;;;;19.50;5.57;;;13.80;99.90;;;;;;4977409;28;20576;-56
2023/08/07 06:18:30;;;;;;;21.88;5.65;;;13.70;99.90;;;;;;4962951;28;20047;-55
2023/08/07 06:20:56;;;;;;;14.40;5.03;;;13.70;99.90;;;;;;4971450;28;20035;-56
2023/08/07 06:23:21;;;;;;;16.33;5.68;;;13.70;99.90;;;;;;4983923;28;20046;-56
2023/08/07 06:25:47;;;;;;;15.98;5.43;;;13.70;99.90;;;;;;4985324;28;20033;-56
2023/08/07 06:28:12;;;;;;;17.73;6.03;;;13.70;99.90;;;;;;4982136;28;20045;-56
2023/08/07 06:30:38;;;;;;;16.05;5.63;;;13.60;99.90;;;;;;4986484;28;20450;-56
2023/08/07 06:33:04;;;;;;;12.93;5.30;;;13.60;99.90;;;;;;4975631;28;20062;-55
2023/08/07 06:35:29;;;;;;;16.17;5.07;;;13.60;99.90;;;;;;4981035;28;20374;-56
2023/08/07 06:37:55;;;;;;;17.75;5.43;;;13.60;99.90;;;;;;4985758;28;20034;-55
2023/08/07 06:40:21;;;;;;;17.58;5.72;;;13.70;99.90;;;;;;4982410;28;20030;-56
2023/08/07 06:42:46;;;;;;;13.82;5.55;;;13.80;99.90;;;;;;4980238;28;20493;-54
2023/08/07 06:45:12;;;;;;;18.90;5.35;;;13.70;99.90;;;;;;4975071;28;20042;-56
2023/08/07 06:47:38;;;;;;;13.30;5.18;;;13.70;99.90;;;;;;4976218;28;20386;-56
2023/08/07 06:50:04;;;;;;;15.55;4.97;;;13.70;99.90;;;;;;4974212;28;20035;-56
2023/08/07 06:52:29;;;;;;;19.15;5.57;;;13.70;99.90;;;;;;4981600;28;20058;-55
2023/08/07 06:54:55;;;;;;;20.20;5.68;;;13.80;99.90;;;;;;4985278;28;20574;-55
2023/08/07 06:57:20;;;;;;;16.63;6.43;;;13.90;99.90;;;;;;4984902;28;20031;-55
2023/08/07 06:59:46;;;;;;;20.88;5.70;;;14.00;99.90;;;;;;4988660;28;20125;-55
2023/08/07 07:02:11;;;;;;;20.60;5.93;;;13.80;99.90;;;;;;4980781;28;20417;-55
2023/08/07 07:04:37;;;;;;;15.15;4.60;;;13.80;99.90;;;;;;4983019;28;20038;-56
2023/08/07 07:07:03;;;;;;;18.45;4.53;;;13.70;99.90;;;;;;4983280;28;20042;-55
2023/08/07 07:09:28;;;;;;;17.08;4.57;;;13.60;99.90;;;;;;4986264;28;20465;-55
2023/08/07 07:11:55;;;;;;;16.50;4.28;;;13.60;99.90;;;;;;4984528;28;20042;-56
2023/08/07 07:14:21;;;;;;;13.52;5.18;;;13.60;99.90;;;;;;4983714;28;20708;-55
2023/08/07 07:16:47;;;;;;;17.70;5.40;;;13.70;99.90;;;;;;4982730;28;20060;-57
2023/08/07 07:19:13;;;;;;;16.02;4.88;;;13.60;99.90;;;;;;4984763;28;20144;-57
2023/08/07 07:21:38;;;;;;;14.73;5.30;;;13.70;99.90;;;;;;4983374;28;20043;-59
2023/08/07 07:24:04;;;;;;;19.00;5.65;;;13.80;99.90;;;;;;4991616;28;20350;-56
2023/08/07 07:26:30;;;;;;;14.20;5.20;;;13.70;99.90;;;;;;4985888;28;20494;-57
2023/08/07 07:28:56;;;;;;;19.20;5.50;;;13.80;99.90;;;;;;4989371;28;20039;-58
2023/08/07 07:31:22;;;;;;;18.20;5.18;;;13.90;99.90;;;;;;4984559;28;20494;-56
2023/08/07 07:33:50;;;;;;;19.92;5.85;;;13.70;99.90;;;;;;4977146;28;20030;-57
2023/08/07 07:36:17;;;;;;;13.40;5.43;;;13.70;99.90;;;;;;4986039;28;20707;-57
2023/08/07 07:38:45;;;;;;;18.40;5.93;;;13.80;99.90;;;;;;4977799;28;20470;-56
2023/08/07 07:41:11;;;;;;;23.20;5.97;;;13.80;99.90;;;;;;4983226;28;20058;-57
2023/08/07 07:43:37;;;;;;;17.02;6.03;;;13.90;99.90;;;;;;4969072;28;20042;-57
2023/08/07 07:46:03;;;;;;;14.27;5.43;;;13.80;99.90;;;;;;4979273;28;20053;-58
2023/08/07 07:48:29;;;;;;;21.23;5.95;;;13.90;99.90;;;;;;4981044;28;20109;-57
2023/08/07 07:51:03;;;;;;;15.75;5.60;;;13.90;99.90;;;;;;4983005;28;20165;-56
2023/08/07 07:53:29;;;;;;;25.73;5.93;;;14.00;99.90;;;;;;4982027;28;20057;-56
2023/08/07 07:55:55;;;;;;;17.70;6.43;;;14.10;99.90;;;;;;4977557;28;20499;-57
2023/08/07 07:58:21;;;;;;;19.17;5.70;;;14.20;99.90;;;;;;4982174;28;20121;-55
2023/08/07 08:00:47;;;;;;;20.27;5.45;;;14.10;99.90;;;;;;4978164;28;20486;-56
2023/08/07 08:03:13;;;;;;;19.60;5.13;;;14.00;99.90;;;;;;4985022;28;20034;-57
2023/08/07 08:05:39;;;;;;;17.17;5.03;;;14.00;99.90;;;;;;4984419;28;20398;-58
2023/08/07 08:08:07;;;;;;;13.68;4.10;;;14.10;99.90;;;;;;4979225;28;20062;-56
2023/08/07 08:10:33;;;;;;;11.38;4.50;;;13.90;99.90;;;;;;4984352;28;20041;-56
2023/08/07 08:13:00;;;;;;;11.45;4.00;;;14.10;99.90;;;;;;4984700;28;20375;-56
2023/08/07 08:15:25;;;;;;;10.82;3.90;;;14.20;99.90;;;;;;4984161;28;20073;-56
2023/08/07 08:17:51;;;;;;;12.38;3.90;;;14.10;99.90;;;;;;4978481;28;20113;-57
2023/08/07 08:20:18;;;;;;;11.90;3.65;;;14.20;99.90;;;;;;4979295;28;20482;-55
2023/08/07 08:22:44;;;;;;;19.00;4.82;;;14.30;99.90;;;;;;4982205;28;20656;-56
2023/08/07 08:25:11;;;;;;;14.75;4.88;;;14.30;99.90;;;;;;4975353;28;20110;-57
2023/08/07 08:27:40;;;;;;;17.33;4.40;;;14.60;99.90;;;;;;4981211;28;20033;-56
2023/08/07 08:30:08;;;;;;;17.67;4.93;;;;;;;;;;4965533;28;20729;-58
2023/08/07 08:32:35;;;;;;;9.63;3.70;;;;;;;;;;4976867;28;20125;-57
2023/08/07 08:35:01;;;;;;;11.13;3.88;;;14.70;99.90;;;;;;4975882;28;20109;-57
2023/08/07 08:37:27;;;;;;;14.00;3.60;;;14.60;99.90;;;;;;4963358;28;20045;-57
2023/08/07 08:39:52;;;;;;;10.15;2.78;;;14.70;99.90;;;;;;4982008;28;20038;-57
2023/08/07 08:42:19;;;;;;;10.77;3.00;;;14.80;99.90;;;;;;4979920;28;20137;-59
2023/08/07 08:44:53;;;;;;;7.78;2.47;;;14.90;99.90;;;;;;4985232;28;20039;-58
2023/08/07 08:47:21;;;;;;;7.88;2.90;;;15.00;99.90;;;;;;4983036;28;20034;-59
2023/08/07 08:49:49;;;;;;;8.57;3.08;;;15.20;99.90;;;;;;4981552;28;20052;-58
2023/08/07 08:52:15;;;;;;;12.10;3.65;;;15.20;99.90;;;;;;4979524;28;20104;-58
2023/08/07 08:54:42;;;;;;;14.75;4.00;;;15.10;99.90;;;;;;4977228;28;20529;-58
2023/08/07 08:57:08;;;;;;;13.38;4.03;;;15.20;99.90;;;;;;4980446;28;20479;-58
2023/08/07 08:59:34;;;;;;;17.27;4.70;;;15.30;99.90;;;;;;4985927;28;20045;-58
2023/08/07 09:01:59;;;;;;;20.10;4.57;;;15.70;99.90;;;;;;4985614;28;20117;-58
2023/08/07 09:04:26;;;;;;;14.02;4.72;;;;;;;;;;4985036;28;20034;-58
2023/08/07 09:06:52;;;;;;;17.17;4.50;;;15.80;99.90;;;;;;4977883;28;20038;-57
2023/08/07 09:09:21;;;;;;;17.15;4.47;;;15.80;99.90;;;;;;4979293;28;20035;-58
2023/08/07 09:11:47;;;;;;;18.00;4.45;;;15.60;99.90;;;;;;4983079;28;20023;-55
2023/08/07 09:14:20;;;;;;;13.95;3.88;;;15.40;99.90;;;;;;4983668;28;20037;-58
2023/08/07 09:16:48;;;;;;;12.77;3.60;;;15.10;99.90;;;;;;4980646;28;20043;-58
2023/08/07 09:19:13;;;;;;;13.40;3.85;;;15.10;99.90;;;;;;4981071;28;20569;-57
2023/08/07 09:21:39;;;;;;;9.75;3.28;;;15.30;99.90;;;;;;4976322;28;20035;-57
2023/08/07 09:24:05;;;;;;;17.13;3.35;;;15.20;99.90;;;;;;4981051;28;20538;-59
2023/08/07 09:26:35;;;;;;;13.73;3.70;;;15.40;99.90;;;;;;4980073;28;20046;-56
2023/08/07 09:29:02;;;;;;;10.98;3.35;;;15.60;99.90;;;;;;4981813;28;20105;-58
2023/08/07 09:31:30;;;;;;;13.45;3.95;;;15.80;99.90;;;;;;4986442;28;20390;-58
2023/08/07 09:34:02;;;;;;;13.88;4.05;;;15.30;99.90;;;;;;4979165;28;20500;-56
2023/08/07 09:36:31;;;;;;;11.65;3.72;;;15.20;99.90;;;;;;4969977;28;20465;-57
2023/08/07 09:39:00;;;;;;;11.32;3.83;;;15.10;99.90;;;;;;4981070;28;20034;-57
2023/08/07 09:41:27;;;;;;;14.07;3.70;;;15.20;99.90;;;;;;4982496;28;20389;-58
2023/08/07 09:43:53;;;;;;;14.27;4.22;;;15.10;99.90;;;;;;4982634;28;20422;-58
2023/08/07 09:46:18;;;;;;;16.00;4.28;;;15.30;99.90;;;;;;4985871;28;20039;-57
2023/08/07 09:48:44;;;;;;;15.82;4.28;;;15.20;99.90;;;;;;4983899;28;20038;-57
2023/08/07 09:51:10;;;;;;;17.42;4.10;;;15.20;99.90;;;;;;4978809;28;20038;-56
2023/08/07 09:53:36;;;;;;;14.68;4.53;;;15.30;99.90;;;;;;4981673;28;20042;-57
2023/08/07 09:56:02;;;;;;;14.65;3.78;;;15.40;99.90;;;;;;4987550;28;20105;-58
2023/08/07 09:58:29;;;;;;;13.27;4.40;;;15.60;99.90;;;;;;4962276;28;20034;-58
2023/08/07 10:00:59;;;;;;;13.30;3.75;;;15.70;99.90;;;;;;4993693;28;20045;-56
2023/08/07 10:03:28;;;;;;;11.82;4.07;;;15.90;99.90;;;;;;4991491;28;20754;-57
2023/08/07 10:05:54;;;;;;;16.85;3.50;;;16.10;99.90;;;;;;4989253;28;20034;-56
2023/08/07 10:08:21;;;;;;;8.98;3.35;;;17.70;99.90;;;;;;4984966;28;20027;-58
2023/08/07 10:10:47;;;;;;;15.43;3.60;;;16.70;99.90;;;;;;4983248;28;20563;-57
2023/08/07 10:13:14;;;;;;;12.13;3.35;;;16.60;99.90;;;;;;4977653;28;20077;-58
2023/08/07 10:15:41;;;;;;;13.05;3.20;;;16.60;99.90;;;;;;4987067;28;20121;-58
2023/08/07 10:18:08;;;;;;;9.05;3.22;;;16.80;99.90;;;;;;4982784;28;20117;-57
2023/08/07 10:20:34;;;;;;;8.75;2.50;;;16.90;99.90;;;;;;4985213;28;20046;-58
2023/08/07 10:23:15;;;;;;;7.68;2.60;;;16.90;99.90;;;;;;4984685;28;20034;-57
2023/08/07 10:25:46;;;;;;;15.60;3.25;;;16.90;99.90;;;;;;4982301;28;20121;-58
2023/08/07 10:28:14;;;;;;;7.35;2.50;;;17.10;99.90;;;;;;4982537;28;20027;-57
2023/08/07 10:30:41;;;;;;;10.02;2.33;;;17.10;99.90;;;;;;4980048;28;20398;-56
2023/08/07 10:33:09;;;;;;;12.18;2.83;;;17.10;99.90;;;;;;4980173;28;20438;-56
2023/08/07 10:35:34;;;;;;;6.63;1.92;;;17.10;99.90;;;;;;4984102;28;20026;-56
2023/08/07 10:38:10;;;;;;;8.73;2.53;;;17.30;99.90;;;;;;4984954;28;20061;-57
2023/08/07 10:41:08;;;;;;;12.30;2.20;;;17.30;99.90;;;;;;4982715;28;20042;-57
2023/08/07 10:43:44;;;;;;;10.10;2.30;;;17.40;99.90;;;;;;4984579;28;20045;-57
2023/08/07 10:46:21;;;;;;;10.15;2.03;;;17.30;99.90;;;;;;4982517;28;20038;-57
2023/08/07 10:48:47;;;;;;;10.30;2.30;;;17.30;99.90;;;;;;4979001;28;20042;-57
2023/08/07 10:51:17;;;;;;;8.60;2.20;;;17.40;99.90;;;;;;4987427;28;20037;-57
2023/08/07 10:53:51;;;;;;;5.50;2.05;;;17.30;99.90;;;;;;4979324;28;20042;-55
2023/08/07 10:56:31;;;;;;;9.18;2.38;;;17.30;99.90;;;;;;4983214;28;20050;-56
2023/08/07 10:58:57;;;;;;;10.05;2.42;;;17.40;99.90;;;;;;4979914;28;20121;-56
2023/08/07 11:01:40;;;;;;;8.55;2.15;;;17.50;99.90;;;;;;4983626;28;20196;-56
2023/08/07 11:04:08;;;;;;;11.73;2.83;;;17.60;99.90;;;;;;4982811;28;20038;-55
2023/08/07 11:06:35;;;;;;;10.80;2.45;;;18.00;99.90;;;;;;4979883;28;20042;-57
2023/08/07 11:09:05;;;;;;;9.82;2.35;;;18.00;99.90;;;;;;4978252;28;20050;-56
2023/08/07 11:11:39;;;;;;;9.40;2.35;;;18.00;99.90;;;;;;4980453;28;20035;-55
2023/08/07 11:14:06;;;;;;;7.63;1.90;;;18.10;99.90;;;;;;4978775;28;20039;-55
2023/08/07 11:16:33;;;;;;;7.38;2.55;;;18.10;99.90;;;;;;4983059;28;20398;-56
2023/08/07 11:19:00;;;;;;;6.55;2.00;;;18.20;99.90;;;;;;4980235;28;20053;-55
2023/08/07 11:21:26;;;;;;;6.47;2.08;;;18.10;99.90;;;;;;4978527;28;20394;-56
2023/08/07 11:23:51;;;;;;;6.57;2.00;;;18.00;99.90;;;;;;4984690;28;20031;-57
2023/08/07 11:26:17;;;;;;;11.48;2.20;;;18.00;99.90;;;;;;4979508;28;20027;-56
2023/08/07 11:28:43;;;;;;;10.82;2.15;;;17.90;99.90;;;;;;4981883;28;20042;-57
2023/08/07 11:31:09;;;;;;;7.78;2.05;;;17.70;99.90;;;;;;4985076;28;20042;-56
2023/08/07 11:33:36;;;;;;;7.05;1.92;;;17.70;99.90;;;;;;4984788;28;20027;-58
2023/08/07 11:36:02;;;;;;;8.15;2.10;;;17.80;99.90;;;;;;4981126;28;20058;-56
2023/08/07 11:38:44;;;;;;;5.85;1.85;;;17.80;99.90;;;;;;4984362;28;20441;-55
2023/08/07 11:41:11;;;;;;;9.60;2.10;;;18.00;99.90;;;;;;4974822;28;20038;-57
2023/08/07 11:43:38;;;;;;;6.80;1.85;;;18.20;99.90;;;;;;4986582;28;20060;-57
2023/08/07 11:46:08;;;;;;;8.95;2.08;;;18.20;99.90;;;;;;4989307;28;20041;-56
2023/08/07 11:48:36;;;;;;;7.28;2.03;;;18.00;99.90;;;;;;4980804;28;20685;-55
2023/08/07 11:51:03;;;;;;;10.10;2.13;;;17.90;99.90;;;;;;4981378;28;20053;-56
2023/08/07 11:53:31;;;;;;;7.45;2.03;;;18.10;99.90;;;;;;4979224;28;20124;-57
2023/08/07 11:55:59;;;;;;;5.90;1.95;;;18.30;99.90;;;;;;4986706;28;20413;-56
2023/08/07 11:58:26;;;;;;;7.45;1.92;;;18.30;99.90;;;;;;4985062;28;20035;-56
2023/08/07 12:00:52;;;;;;;6.55;1.80;;;18.20;99.90;;;;;;4979390;28;20462;-57
2023/08/07 12:03:56;;;;;;;7.10;1.70;;;18.30;99.90;;;;;;4980138;28;20410;-56
2023/08/07 12:06:26;;;;;;;6.10;1.92;;;18.40;99.90;;;;;;4969184;28;20117;-57
2023/08/07 12:08:56;;;;;;;9.30;1.90;;;18.40;99.90;;;;;;4980797;28;20467;-57
2023/08/07 12:11:21;;;;;;;5.72;1.83;;;18.40;99.90;;;;;;4982076;28;20034;-56
2023/08/07 12:13:48;;;;;;;7.80;1.85;;;18.50;99.90;;;;;;4976632;28;20037;-55
2023/08/07 12:16:18;;;;;;;5.47;1.98;;;18.70;99.90;;;;;;4979062;28;20104;-56
2023/08/07 12:18:48;;;;;;;7.38;1.92;;;18.80;99.90;;;;;;4978151;28;20089;-57
2023/08/07 12:21:16;;;;;;;7.57;2.10;;;18.80;99.90;;;;;;4986684;28;20034;-57
2023/08/07 12:23:44;;;;;;;6.60;1.90;;;18.70;99.90;;;;;;4980058;28;20042;-56
2023/08/07 12:26:10;;;;;;;6.82;2.03;;;18.80;99.90;;;;;;4981143;28;20038;-57
2023/08/07 12:28:36;;;;;;;7.32;2.25;;;19.00;99.90;;;;;;4981432;28;20042;-56
2023/08/07 12:31:02;;;;;;;4.88;1.95;;;19.20;99.90;;;;;;4985867;28;20034;-57
2023/08/07 12:33:31;;;;;;;7.82;1.70;;;19.00;99.90;;;;;;4985607;28;20033;-55
2023/08/07 12:35:58;;;;;;;6.45;1.50;;;19.00;99.90;;;;;;4979973;28;20030;-56
2023/08/07 12:38:24;;;;;;;6.00;1.60;;;19.00;99.90;;;;;;4978936;28;20046;-55
2023/08/07 12:40:49;;;;;;;5.60;1.98;;;19.10;99.90;;;;;;4982796;28;20030;-57